Time;durP1;ratioP1;P1;durP2;ratioP2;P2;SDS_P1;SDS_P2;PMS_P1;PMS_P2;Temp;Humidity;BMP_temperature;BMP_pressure;BME280_temperature;BME280_humidity;BME280_pressure;Samples;Min_cycle;Max_cycle;Signal;HPM_P1;HPM_P2
2024/01/26 00:00:57;;;;;;;2.47;0.80;;;;;;;9.44;100.00;148512.25;4974503;28;20218;-69
2024/01/26 00:03:23;;;;;;;1.50;0.87;;;;;;;9.38;100.00;148497.31;4970190;28;20248;-69
2024/01/26 00:05:50;;;;;;;1.63;1.07;;;;;;;9.37;100.00;148494.84;4974174;28;20234;-69
2024/01/26 00:08:16;;;;;;;3.27;0.90;;;;;;;9.37;100.00;148496.06;4970521;28;20242;-69
2024/01/26 00:10:44;;;;;;;1.13;0.97;;;;;;;9.36;100.00;148492.34;4973332;28;20231;-69
2024/01/26 00:13:13;;;;;;;1.73;0.80;;;;;;;9.34;100.00;148487.38;4967795;28;20254;-69
2024/01/26 00:15:40;;;;;;;1.57;1.00;;;;;;;9.32;100.00;148482.38;4970668;28;20249;-69
2024/01/26 00:18:07;;;;;;;3.43;1.17;;;;;;;9.30;100.00;148478.63;4967753;28;20222;-69
2024/01/26 00:20:34;;;;;;;2.33;0.97;;;;;;;9.30;100.00;148478.63;4964064;28;20673;-69
2024/01/26 00:23:01;;;;;;;1.70;1.20;;;;;;;9.29;100.00;148477.41;4974098;28;20235;-69
2024/01/26 00:25:27;;;;;;;4.03;1.30;;;;;;;9.29;100.00;148476.13;4970750;28;20740;-69
2024/01/26 00:27:55;;;;;;;2.67;0.80;;;;;;;9.29;100.00;148476.13;4978149;28;20313;-69
2024/01/26 00:30:22;;;;;;;2.53;1.10;;;;;;;9.28;100.00;148474.91;4974823;28;20667;-69
2024/01/26 00:32:48;;;;;;;2.80;1.00;;;;;;;9.27;100.00;148472.44;4973602;28;20238;-69
2024/01/26 00:35:15;;;;;;;1.53;0.80;;;;;;;9.27;100.00;148471.16;4970810;28;20230;-69
2024/01/26 00:37:42;;;;;;;3.87;1.10;;;;;;;9.24;100.00;148463.69;4977597;28;20232;-69
2024/01/26 00:40:09;;;;;;;2.70;0.83;;;;;;;9.27;100.00;148471.16;4971318;28;20222;-69
2024/01/26 00:42:37;;;;;;;1.47;0.90;;;;;;;9.28;100.00;148474.91;4972822;28;20242;-69
2024/01/26 00:45:06;;;;;;;2.87;0.80;;;;;;;9.28;100.00;148474.91;4975902;28;20239;-69
2024/01/26 00:47:33;;;;;;;1.67;0.70;;;;;;;9.28;100.00;148473.66;4972663;28;20221;-70
2024/01/26 00:50:00;;;;;;;2.23;0.70;;;;;;;9.27;100.00;148472.44;4973404;28;20236;-69
2024/01/26 00:52:26;;;;;;;4.00;0.73;;;;;;;9.32;100.00;148482.38;4970513;28;20239;-69
2024/01/26 00:54:53;;;;;;;0.63;0.50;;;;;;;9.27;100.00;148472.44;4975201;28;20241;-69
2024/01/26 00:57:19;;;;;;;2.50;0.60;;;;;;;9.27;100.00;148472.44;4970972;28;20218;-69
2024/01/26 00:59:46;;;;;;;1.77;0.60;;;;;;;9.28;100.00;148473.66;4975278;28;20226;-69
2024/01/26 01:02:14;;;;;;;2.50;0.70;;;;;;;9.24;100.00;148463.69;4990138;28;20226;-69
2024/01/26 01:04:41;;;;;;;3.03;0.60;;;;;;;9.24;100.00;148464.97;4979810;28;20747;-69
2024/01/26 01:07:07;;;;;;;1.90;0.50;;;;;;;9.24;100.00;148463.69;4974714;28;20227;-69
2024/01/26 01:09:34;;;;;;;2.30;0.70;;;;;;;9.26;100.00;148469.94;4975852;28;20234;-69
2024/01/26 01:12:02;;;;;;;0.80;0.40;;;;;;;9.28;100.00;148474.91;4979037;28;20670;-69
2024/01/26 01:14:28;;;;;;;1.30;0.60;;;;;;;9.33;100.00;148486.09;4978246;28;20229;-69
2024/01/26 01:16:56;;;;;;;2.13;0.40;;;;;;;9.38;100.00;148497.31;4978871;28;20239;-69
2024/01/26 01:19:24;;;;;;;2.93;0.40;;;;;;;9.38;100.00;148497.31;4973550;28;20274;-69
2024/01/26 01:21:51;;;;;;;3.53;0.80;;;;;;;9.35;100.00;148491.06;4969031;28;20237;-69
2024/01/26 01:24:18;;;;;;;1.63;0.60;;;;;;;9.34;100.00;148488.59;4974480;28;20228;-69
2024/01/26 01:26:44;;;;;;;2.83;0.57;;;;;;;9.30;100.00;148479.91;4979688;28;20237;-69
2024/01/26 01:29:11;;;;;;;1.23;0.40;;;;;;;9.31;100.00;148481.13;4976513;28;20232;-69
2024/01/26 01:31:38;;;;;;;1.20;0.60;;;;;;;9.23;100.00;148461.22;4975768;28;20305;-69
2024/01/26 01:34:05;;;;;;;2.33;0.70;;;;;;;9.18;100.00;148450.03;4976263;28;20245;-69
2024/01/26 01:36:33;;;;;;;2.20;0.40;;;;;;;9.12;100.00;148435.09;4974945;28;20340;-69
2024/01/26 01:38:59;;;;;;;3.87;0.60;;;;;;;9.15;100.00;148442.56;4975758;28;20233;-69
2024/01/26 01:41:26;;;;;;;3.10;0.60;;;;;;;9.15;100.00;148443.78;4974523;28;20223;-69
2024/01/26 01:43:57;;;;;;;1.30;0.50;;;;;;;9.08;100.00;148425.16;4975543;28;20243;-69
2024/01/26 01:46:23;;;;;;;2.57;0.80;;;;;;;9.03;100.00;148412.69;4971720;28;20730;-69
2024/01/26 01:48:51;;;;;;;2.30;0.70;;;;;;;8.99;100.00;148404.00;4979840;28;20221;-70
2024/01/26 01:51:18;;;;;;;1.60;0.43;;;;;;;9.10;100.00;148430.13;4973278;28;20223;-69
2024/01/26 01:53:49;;;;;;;1.20;0.50;;;;;;;9.09;100.00;148428.84;4983693;28;20237;-69
2024/01/26 01:56:16;;;;;;;0.90;0.50;;;;;;;9.11;100.00;148433.81;4978247;28;20222;-69
2024/01/26 01:58:43;;;;;;;2.17;0.60;;;;;;;9.12;100.00;148436.31;4976167;28;20233;-69
2024/01/26 02:01:10;;;;;;;4.30;0.60;;;;;;;9.09;100.00;148427.63;4972957;28;20230;-69
2024/01/26 02:03:37;;;;;;;5.10;0.70;;;;;;;9.00;100.00;148407.72;4977339;28;20241;-69
2024/01/26 02:06:04;;;;;;;3.10;0.70;;;;;;;9.00;100.00;148406.50;4978442;28;20226;-69
2024/01/26 02:08:31;;;;;;;4.90;0.80;;;;;;;8.96;100.00;148396.53;4979299;28;20587;-69
2024/01/26 02:10:59;;;;;;;1.40;0.50;;;;;;;8.99;100.00;148405.25;4979076;28;20229;-69
2024/01/26 02:13:29;;;;;;;1.20;0.50;;;;;;;9.06;100.00;148420.16;4971512;28;20309;-69
2024/01/26 02:15:56;;;;;;;0.67;0.50;;;;;;;9.09;100.00;148428.84;4980921;28;20232;-70
2024/01/26 02:18:22;;;;;;;0.70;0.40;;;;;;;9.14;100.00;148440.06;4978764;28;20834;-69
2024/01/26 02:20:49;;;;;;;1.53;0.50;;;;;;;9.17;100.00;148447.53;4980988;28;20229;-69
2024/01/26 02:23:22;;;;;;;1.03;0.43;;;;;;;9.26;100.00;148469.94;4976853;28;20234;-69
2024/01/26 02:25:49;;;;;;;1.03;0.50;;;;;;;9.28;100.00;148473.66;4975516;28;20297;-69
2024/01/26 02:28:15;;;;;;;1.67;0.60;;;;;;;9.26;100.00;148469.94;4977521;28;20222;-69
2024/01/26 02:30:42;;;;;;;1.70;0.53;;;;;;;9.29;100.00;148476.13;4979270;28;20498;-69
2024/01/26 02:33:08;;;;;;;3.10;0.43;;;;;;;9.29;100.00;148476.13;4977961;28;20890;-69
2024/01/26 02:35:36;;;;;;;2.97;0.67;;;;;;;9.29;100.00;148476.13;4979687;28;20271;-69
2024/01/26 02:38:02;;;;;;;1.47;0.47;;;;;;;9.35;100.00;148491.06;4980067;28;20238;-69
2024/01/26 02:40:30;;;;;;;2.97;0.50;;;;;;;9.32;100.00;148483.59;4973699;28;20221;-69
2024/01/26 02:42:57;;;;;;;3.40;0.50;;;;;;;9.29;100.00;148476.13;4974186;28;20242;-69
2024/01/26 02:45:25;;;;;;;1.30;0.60;;;;;;;9.35;100.00;148489.84;4972664;28;20398;-69
2024/01/26 02:47:51;;;;;;;2.43;0.50;;;;;;;9.35;100.00;148489.84;4976358;28;20233;-69
2024/01/26 02:50:18;;;;;;;3.60;0.53;;;;;;;9.38;100.00;148497.31;4974180;28;20234;-69
2024/01/26 02:52:45;;;;;;;1.37;0.40;;;;;;;9.38;100.00;148497.31;4979042;28;20241;-69
2024/01/26 02:55:12;;;;;;;1.37;0.40;;;;;;;9.47;100.00;148518.47;4971229;28;20218;-69
2024/01/26 02:57:40;;;;;;;1.17;0.40;;;;;;;9.44;100.00;148512.25;4976212;28;20592;-69
2024/01/26 03:00:08;;;;;;;1.67;0.50;;;;;;;9.47;100.00;148518.47;4979083;28;20234;-69
2024/01/26 03:02:35;;;;;;;2.03;0.33;;;;;;;9.50;100.00;148525.94;4975317;28;20318;-69
2024/01/26 03:05:01;;;;;;;1.90;0.50;;;;;;;9.55;100.00;148538.38;4973896;28;20600;-70
2024/01/26 03:07:28;;;;;;;1.10;0.40;;;;;;;9.58;98.55;148547.06;4972972;28;20225;-69
2024/01/26 03:09:54;;;;;;;0.60;0.30;;;;;;;9.59;98.05;148548.34;4975739;28;20241;-69
2024/01/26 03:12:21;;;;;;;0.97;0.60;;;;;;;9.58;99.00;148545.84;4971148;28;20574;-69
2024/01/26 03:14:52;;;;;;;1.73;0.50;;;;;;;9.49;100.00;148524.69;4974600;28;20235;-69
2024/01/26 03:17:18;;;;;;;0.90;0.40;;;;;;;9.55;100.00;148539.59;4964109;28;20706;-69
2024/01/26 03:19:45;;;;;;;3.10;0.60;;;;;;;9.59;99.07;148549.56;4983114;28;20243;-69
2024/01/26 03:22:12;;;;;;;1.13;0.40;;;;;;;9.59;100.00;148548.34;4972602;28;20246;-69
2024/01/26 03:24:38;;;;;;;0.93;0.47;;;;;;;9.57;100.00;148543.34;4972884;28;20231;-69
2024/01/26 03:27:05;;;;;;;1.00;0.50;;;;;;;9.58;100.00;148547.06;4973244;28;20287;-69
2024/01/26 03:29:32;;;;;;;1.07;0.50;;;;;;;9.70;99.22;148574.44;4967308;28;20336;-69
2024/01/26 03:32:00;;;;;;;1.20;0.60;;;;;;;9.65;100.00;148563.25;4972447;28;20261;-69
2024/01/26 03:34:27;;;;;;;1.53;0.60;;;;;;;9.64;99.85;148560.78;4971131;28;20239;-69
2024/01/26 03:36:53;;;;;;;2.30;0.60;;;;;;;9.70;100.00;148574.44;4973844;28;20277;-69
2024/01/26 03:39:20;;;;;;;0.37;0.33;;;;;;;9.60;100.00;148552.03;4973457;28;20227;-69
2024/01/26 03:41:47;;;;;;;1.90;0.40;;;;;;;9.77;100.00;148591.88;4971613;28;20242;-69
2024/01/26 03:44:13;;;;;;;1.13;0.50;;;;;;;9.70;100.00;148574.44;4975224;28;20227;-69
2024/01/26 03:46:42;;;;;;;0.93;0.47;;;;;;;9.60;100.00;148550.81;4975546;28;21061;-69
2024/01/26 03:49:10;;;;;;;2.07;0.77;;;;;;;9.56;100.00;148542.09;4969882;28;20273;-69
2024/01/26 03:51:37;;;;;;;1.10;0.80;;;;;;;9.48;100.00;148520.94;4975136;28;20325;-69
2024/01/26 03:54:04;;;;;;;2.63;0.80;;;;;;;9.49;100.00;148524.69;4973188;28;20683;-69
2024/01/26 03:56:31;;;;;;;2.73;0.60;;;;;;;9.51;100.00;148529.69;4969782;28;20708;-69
2024/01/26 03:58:57;;;;;;;4.10;0.60;;;;;;;9.47;100.00;148518.47;4973760;28;20220;-69
2024/01/26 04:04:05;;;;;;;1.27;0.60;;;;;;;9.38;100.00;148498.53;5552097;23;20222;-70
2024/01/26 04:06:38;;;;;;;1.97;1.00;;;;;;;9.33;100.00;148486.09;4965874;28;20994;-69
2024/01/26 04:09:06;;;;;;;4.73;0.77;;;;;;;9.23;100.00;148462.47;4977836;28;20274;-70
2024/01/26 04:11:32;;;;;;;2.10;0.60;;;;;;;9.18;100.00;148448.75;4972950;28;20237;-69
2024/01/26 04:13:59;;;;;;;2.20;0.70;;;;;;;9.12;100.00;148436.31;4967559;28;20242;-69
2024/01/26 04:16:26;;;;;;;1.33;0.73;;;;;;;9.13;100.00;148437.59;4959888;28;20285;-69
2024/01/26 04:18:52;;;;;;;2.20;0.60;;;;;;;9.18;100.00;148450.03;4953820;28;20319;-69
2024/01/26 04:21:19;;;;;;;1.87;0.77;;;;;;;9.20;100.00;148453.75;4951959;28;20218;-69
2024/01/26 04:23:47;;;;;;;1.97;0.60;;;;;;;9.20;100.00;148455.00;4955516;28;20233;-69
2024/01/26 04:26:14;;;;;;;1.20;0.60;;;;;;;9.26;100.00;148468.66;4952238;28;20221;-69
2024/01/26 04:28:41;;;;;;;0.97;0.53;;;;;;;9.25;100.00;148466.19;4956806;28;20575;-69
2024/01/26 04:31:08;;;;;;;0.90;0.57;;;;;;;9.30;100.00;148478.63;5185436;23;20324;-69
2024/01/26 04:33:35;;;;;;;1.27;0.50;;;;;;;9.24;100.00;148464.97;4990785;28;20751;-69
2024/01/26 04:36:01;;;;;;;0.73;0.50;;;;;;;9.30;100.00;148478.63;4997071;28;20267;-69
2024/01/26 04:38:31;;;;;;;1.00;0.43;;;;;;;9.34;100.00;148487.38;4994203;28;20240;-69
2024/01/26 04:40:58;;;;;;;2.10;0.60;;;;;;;9.38;100.00;148498.53;4995677;28;20231;-69
2024/01/26 04:43:30;;;;;;;1.97;0.50;;;;;;;9.39;100.00;148499.81;4974189;28;20231;-69
2024/01/26 04:45:57;;;;;;;0.40;0.30;;;;;;;9.41;100.00;148506.00;4975639;28;20256;-69
2024/01/26 04:48:23;;;;;;;0.90;0.50;;;;;;;9.49;100.00;148524.69;4988049;28;20448;-69
2024/01/26 04:50:50;;;;;;;1.13;0.40;;;;;;;9.57;100.00;148544.56;4978112;28;20272;-69
2024/01/26 04:53:17;;;;;;;2.70;0.60;;;;;;;9.56;100.00;148542.09;4976460;28;20698;-69
2024/01/26 04:55:45;;;;;;;1.33;0.50;;;;;;;9.65;100.00;148562.00;4978286;28;20232;-69
2024/01/26 04:58:13;;;;;;;1.00;0.40;;;;;;;9.72;100.00;148580.69;4981780;28;20227;-69
2024/01/26 05:00:39;;;;;;;0.60;0.40;;;;;;;9.70;100.00;148575.72;4975766;28;20599;-69
2024/01/26 05:03:06;;;;;;;2.77;0.60;;;;;;;9.75;100.00;148586.91;4978904;28;20229;-69
2024/01/26 05:05:32;;;;;;;1.87;0.40;;;;;;;9.79;100.00;148596.84;4976934;28;20757;-69
2024/01/26 05:07:59;;;;;;;0.70;0.40;;;;;;;9.76;100.00;148589.38;4980254;28;20225;-70
2024/01/26 05:10:26;;;;;;;1.33;0.40;;;;;;;9.75;100.00;148586.91;4974567;28;20234;-69
2024/01/26 05:12:53;;;;;;;1.43;0.73;;;;;;;9.81;100.00;148601.84;4977598;28;20290;-69
2024/01/26 05:15:21;;;;;;;0.73;0.50;;;;;;;9.78;100.00;148593.16;4975332;28;20223;-70
2024/01/26 05:17:48;;;;;;;3.70;1.43;;;;;;;9.78;100.00;148594.38;4978815;28;20236;-69
2024/01/26 05:20:14;;;;;;;25.70;15.23;;;;;;;9.81;100.00;148601.84;4976695;28;20222;-69
2024/01/26 05:22:41;;;;;;;1.70;1.00;;;;;;;9.81;100.00;148601.84;4977547;28;20237;-69
2024/01/26 05:25:09;;;;;;;3.40;0.50;;;;;;;9.83;100.00;148606.81;4975350;28;20221;-69
2024/01/26 05:27:35;;;;;;;7.27;4.20;;;;;;;9.88;100.00;148618.03;4977961;28;20247;-69
2024/01/26 05:30:02;;;;;;;1.10;0.50;;;;;;;9.97;100.00;148639.19;4979153;28;20225;-69
2024/01/26 05:32:30;;;;;;;2.87;0.77;;;;;;;9.90;100.00;148624.25;4974794;28;20238;-69
2024/01/26 05:34:56;;;;;;;3.13;0.50;;;;;;;9.98;100.00;148642.94;4980734;28;20710;-68
2024/01/26 05:37:23;;;;;;;1.03;0.50;;;;;;;9.96;100.00;148636.69;4974280;28;20350;-68
2024/01/26 05:39:50;;;;;;;1.53;0.70;;;;;;;9.87;100.00;148616.78;4978293;28;20312;-69
2024/01/26 05:42:16;;;;;;;0.87;0.50;;;;;;;9.84;100.00;148608.09;4979393;28;20233;-69
2024/01/26 05:44:43;;;;;;;1.60;0.60;;;;;;;9.84;100.00;148609.31;4978190;28;20238;-69
2024/01/26 05:47:09;;;;;;;1.33;0.53;;;;;;;9.81;100.00;148600.63;4976242;28;20218;-69
2024/01/26 05:49:37;;;;;;;0.80;0.50;;;;;;;9.89;100.00;148620.53;4975943;28;20701;-69
2024/01/26 05:52:05;;;;;;;2.03;0.70;;;;;;;9.91;100.00;148625.50;4977897;28;20243;-69
2024/01/26 05:54:32;;;;;;;0.50;0.40;;;;;;;9.87;100.00;148615.56;4973644;28;20303;-69
2024/01/26 05:56:59;;;;;;;0.60;0.40;;;;;;;9.85;100.00;148611.78;4977065;28;20243;-68
2024/01/26 05:59:25;;;;;;;0.87;0.70;;;;;;;9.79;100.00;148596.84;4973836;28;20218;-68
2024/01/26 06:01:52;;;;;;;0.90;0.33;;;;;;;9.83;100.00;148605.59;4976829;28;20233;-69
2024/01/26 06:04:19;;;;;;;0.60;0.40;;;;;;;9.80;100.00;148598.13;4980181;28;20225;-69
2024/01/26 06:06:47;;;;;;;0.80;0.50;;;;;;;9.86;100.00;148613.06;4978789;28;20884;-69
2024/01/26 06:09:13;;;;;;;2.10;0.70;;;;;;;9.87;100.00;148616.78;4977767;28;20245;-69
2024/01/26 06:11:42;;;;;;;1.23;0.60;;;;;;;9.86;100.00;148613.06;4973897;28;20237;-69
2024/01/26 06:14:09;;;;;;;2.30;0.70;;;;;;;9.81;100.00;148600.63;4972788;28;20217;-69
2024/01/26 06:16:35;;;;;;;0.83;0.60;;;;;;;9.78;100.00;148594.38;4974907;28;20256;-69
2024/01/26 06:19:02;;;;;;;0.47;0.47;;;;;;;9.75;100.00;148586.91;4976699;28;20231;-69
2024/01/26 06:21:29;;;;;;;1.63;0.60;;;;;;;9.73;100.00;148581.91;4980187;28;20241;-69
2024/01/26 06:23:57;;;;;;;1.23;0.60;;;;;;;9.74;100.00;148584.41;4986644;28;20631;-69
2024/01/26 06:26:25;;;;;;;2.27;0.80;;;;;;;9.66;100.00;148564.50;4972780;28;20217;-70
2024/01/26 06:28:52;;;;;;;2.60;0.70;;;;;;;9.71;100.00;148576.94;4978310;28;20237;-70
2024/01/26 06:31:19;;;;;;;2.33;0.80;;;;;;;9.70;100.00;148575.72;4973700;28;20666;-70
2024/01/26 06:33:45;;;;;;;2.60;0.70;;;;;;;9.72;100.00;148579.44;4975640;28;20242;-70
2024/01/26 06:36:12;;;;;;;1.90;0.67;;;;;;;9.69;100.00;148573.22;4975588;28;20221;-70
2024/01/26 06:38:40;;;;;;;3.90;0.90;;;;;;;9.70;100.00;148574.44;4975834;28;20243;-70
2024/01/26 06:41:08;;;;;;;1.43;0.70;;;;;;;9.69;100.00;148571.97;4975053;28;20237;-70
2024/01/26 06:43:35;;;;;;;1.57;0.77;;;;;;;9.66;100.00;148565.75;4972634;28;20341;-70
2024/01/26 06:46:01;;;;;;;1.47;0.70;;;;;;;9.61;100.00;148553.31;4976034;28;20235;-70
2024/01/26 06:48:29;;;;;;;1.37;0.80;;;;;;;9.60;100.00;148552.03;4971552;28;20237;-70
2024/01/26 06:50:56;;;;;;;1.03;0.60;;;;;;;9.63;100.00;148558.28;4974652;28;20761;-70
2024/01/26 06:53:22;;;;;;;1.87;0.80;;;;;;;9.58;100.00;148547.06;4973331;28;20221;-70
2024/01/26 06:55:49;;;;;;;3.63;0.90;;;;;;;9.48;100.00;148522.22;4978435;28;20235;-72
2024/01/26 06:58:18;;;;;;;3.83;0.80;;;;;;;9.43;100.00;148509.78;4975220;28;20222;-70
2024/01/26 07:00:44;;;;;;;0.73;0.60;;;;;;;9.44;100.00;148512.25;4974903;28;20246;-69
2024/01/26 07:03:11;;;;;;;2.50;0.90;;;;;;;9.47;100.00;148519.72;4963815;28;20240;-69
2024/01/26 07:05:38;;;;;;;0.77;0.60;;;;;;;9.50;100.00;148527.19;4975624;28;20231;-70
2024/01/26 07:08:06;;;;;;;2.90;0.90;;;;;;;9.44;100.00;148513.47;4976257;28;20718;-70
2024/01/26 07:10:32;;;;;;;2.73;0.80;;;;;;;9.53;100.00;148534.66;4971623;28;20567;-69
2024/01/26 07:12:59;;;;;;;1.67;0.90;;;;;;;9.49;100.00;148524.69;4975959;28;20239;-69
2024/01/26 07:15:27;;;;;;;1.90;0.87;;;;;;;9.51;100.00;148528.41;4972105;28;20226;-69
2024/01/26 07:17:53;;;;;;;1.27;0.80;;;;;;;9.53;100.00;148533.41;4977980;28;20824;-70
2024/01/26 07:20:21;;;;;;;0.77;0.67;;;;;;;9.54;100.00;148535.88;4974805;28;20222;-69
2024/01/26 07:22:47;;;;;;;2.30;0.83;;;;;;;9.53;100.00;148534.66;4974015;28;20273;-69
2024/01/26 07:25:18;;;;;;;4.23;0.77;;;;;;;9.58;100.00;148547.06;4973862;28;20234;-69
2024/01/26 07:27:45;;;;;;;4.20;1.20;;;;;;;9.63;100.00;148557.03;4973822;28;20249;-69
2024/01/26 07:30:13;;;;;;;2.53;0.80;;;;;;;9.62;100.00;148554.53;4973085;28;20250;-69
2024/01/26 07:32:41;;;;;;;3.20;1.00;;;;;;;9.66;100.00;148564.50;4972474;28;20720;-69
2024/01/26 07:35:08;;;;;;;2.27;1.03;;;;;;;9.80;100.00;148599.34;4972147;28;20230;-69
2024/01/26 07:37:35;;;;;;;3.67;1.03;;;;;;;9.75;100.00;148586.91;4973984;28;20241;-69
2024/01/26 07:40:04;;;;;;;2.00;1.00;;;;;;;9.78;100.00;148594.38;4976055;28;20222;-69
2024/01/26 07:42:31;;;;;;;1.40;0.97;;;;;;;9.82;100.00;148604.31;4972536;28;20238;-69
2024/01/26 07:44:57;;;;;;;5.33;1.20;;;;;;;9.81;100.00;148601.84;4976443;28;20625;-69
2024/01/26 07:47:24;;;;;;;0.80;0.60;;;;;;;9.87;100.00;148615.56;4970299;28;20927;-69
2024/01/26 07:49:52;;;;;;;1.10;0.77;;;;;;;9.92;100.00;148626.72;4977351;28;20226;-69
2024/01/26 07:52:20;;;;;;;1.73;0.93;;;;;;;9.94;100.00;148632.97;4973860;28;20219;-69
2024/01/26 07:54:48;;;;;;;1.63;0.90;;;;;;;9.94;100.00;148632.97;4973771;28;20236;-69
2024/01/26 07:57:15;;;;;;;1.50;1.10;;;;;;;9.97;100.00;148639.19;4972772;28;20226;-69
2024/01/26 07:59:41;;;;;;;1.20;0.67;;;;;;;10.03;100.00;148654.13;4972660;28;20699;-69
2024/01/26 08:02:08;;;;;;;1.67;0.80;;;;;;;10.08;100.00;148665.31;4972333;28;20307;-69
2024/01/26 08:04:35;;;;;;;2.13;0.80;;;;;;;10.10;100.00;148670.28;4967565;28;20257;-69
2024/01/26 08:07:03;;;;;;;1.73;0.90;;;;;;;10.19;100.00;148693.97;4976602;28;20226;-69
2024/01/26 08:09:29;;;;;;;1.60;0.87;;;;;;;10.19;100.00;148692.69;4972253;28;20226;-69
2024/01/26 08:11:56;;;;;;;1.93;0.77;;;;;;;10.27;100.00;148712.63;4976694;28;20226;-69
2024/01/26 08:14:23;;;;;;;1.73;0.83;;;;;;;10.30;100.00;148718.88;4970488;28;20230;-69
2024/01/26 08:16:49;;;;;;;1.97;0.90;;;;;;;10.28;100.00;148713.91;4975541;28;20697;-69
2024/01/26 08:19:16;;;;;;;2.73;0.87;;;;;;;10.38;100.00;148737.53;4972363;28;20214;-69
2024/01/26 08:21:42;;;;;;;1.50;0.70;;;;;;;10.48;99.17;148762.50;4973605;28;20229;-69
2024/01/26 08:24:10;;;;;;;1.93;0.80;;;;;;;10.50;99.26;148766.25;4971919;28;20232;-69
2024/01/26 08:26:37;;;;;;;1.60;0.80;;;;;;;10.53;99.99;148774.94;4975473;28;20231;-69
2024/01/26 08:29:04;;;;;;;2.30;0.93;;;;;;;10.56;98.71;148781.19;4975456;28;20693;-69
2024/01/26 08:31:30;;;;;;;3.13;0.80;;;;;;;10.56;98.35;148782.41;4971743;28;20237;-69
2024/01/26 08:33:57;;;;;;;2.40;0.80;;;;;;;10.63;97.65;148799.84;4974985;28;20236;-69
2024/01/26 08:36:24;;;;;;;2.20;0.80;;;;;;;10.68;96.84;148809.81;4970353;28;20218;-70
2024/01/26 08:38:53;;;;;;;1.47;0.80;;;;;;;10.73;97.03;148823.50;4975062;28;20249;-69
2024/01/26 08:41:21;;;;;;;3.53;0.90;;;;;;;10.75;96.75;148827.25;4971213;28;20221;-69
2024/01/26 08:43:48;;;;;;;1.90;0.90;;;;;;;10.77;96.53;148832.25;4973178;28;20241;-69
2024/01/26 08:46:14;;;;;;;5.07;1.37;;;;;;;10.84;95.11;148848.41;4971924;28;20223;-69
2024/01/26 08:48:41;;;;;;;2.93;1.00;;;;;;;10.85;95.85;148850.91;4972267;28;20238;-69
2024/01/26 08:51:07;;;;;;;1.33;0.87;;;;;;;10.83;94.32;148847.19;4969753;28;20637;-69
2024/01/26 08:53:34;;;;;;;1.27;0.83;;;;;;;10.83;94.84;148847.19;4972972;28;20230;-69
2024/01/26 08:56:04;;;;;;;6.97;3.73;;;;;;;10.85;95.17;148850.91;4973875;28;20735;-69
2024/01/26 08:58:32;;;;;;;6.93;1.10;;;;;;;10.83;95.01;148847.19;4970313;28;20256;-69
2024/01/26 09:00:59;;;;;;;6.63;4.40;;;;;;;10.84;95.00;148848.41;4975075;28;20323;-69
2024/01/26 09:03:29;;;;;;;5.10;1.47;;;;;;;10.88;94.61;148858.38;4970992;28;20672;-69
2024/01/26 09:05:56;;;;;;;7.33;1.33;;;;;;;10.86;94.92;148853.41;4976850;28;20249;-70
2024/01/26 09:08:23;;;;;;;3.10;1.50;;;;;;;10.95;94.18;148875.81;4972070;28;20224;-70
2024/01/26 09:10:49;;;;;;;2.53;1.17;;;;;;;10.98;95.06;148882.06;4972943;28;20243;-69
2024/01/26 09:13:16;;;;;;;1.70;1.07;;;;;;;11.06;94.54;148902.00;4972170;28;20218;-69
2024/01/26 09:15:45;;;;;;;2.97;1.27;;;;;;;11.11;93.67;148914.47;4972894;28;20707;-69
2024/01/26 09:18:12;;;;;;;2.87;0.90;;;;;;;11.05;93.77;148900.75;4970385;28;20738;-70
2024/01/26 09:20:38;;;;;;;1.93;1.10;;;;;;;10.84;94.35;148849.69;4975502;28;20233;-69
2024/01/26 09:23:05;;;;;;;4.30;1.07;;;;;;;10.89;94.01;148860.88;4979477;28;20234;-70
2024/01/26 09:25:31;;;;;;;2.10;1.10;;;;;;;10.82;95.16;148844.69;4977168;28;20227;-70
2024/01/26 09:27:58;;;;;;;2.73;1.33;;;;;;;10.80;95.52;148839.72;4975803;28;20242;-70
2024/01/26 09:30:25;;;;;;;1.93;1.30;;;;;;;10.97;95.63;148880.81;4972903;28;20233;-70
2024/01/26 09:32:53;;;;;;;2.07;1.20;;;;;;;10.92;95.62;148869.63;4983321;28;20239;-70
2024/01/26 09:35:19;;;;;;;1.80;1.13;;;;;;;10.94;95.51;148873.34;4974420;28;20242;-70
2024/01/26 09:37:46;;;;;;;2.33;1.50;;;;;;;10.99;94.39;148884.56;4976352;28;20236;-70
2024/01/26 09:40:13;;;;;;;3.37;1.13;;;;;;;10.94;95.53;148873.34;4975553;28;20217;-70
2024/01/26 09:42:40;;;;;;;2.40;1.20;;;;;;;11.15;94.42;148923.16;4974905;28;20237;-70
2024/01/26 09:45:08;;;;;;;1.83;1.53;;;;;;;11.17;93.62;148928.16;4979221;28;20704;-70
2024/01/26 09:47:36;;;;;;;1.43;1.10;;;;;;;11.05;94.49;148900.75;4975593;28;20241;-70
2024/01/26 09:50:06;;;;;;;3.07;1.40;;;;;;;11.08;93.22;148907.00;4976986;28;20239;-70
2024/01/26 09:52:35;;;;;;;1.87;1.43;;;;;;;11.08;93.17;148907.00;4969259;28;20269;-70
2024/01/26 09:55:02;;;;;;;1.93;1.33;;;;;;;11.05;94.55;148900.75;4977344;28;20233;-70
2024/01/26 09:57:31;;;;;;;2.07;1.07;;;;;;;11.16;93.74;148925.66;4976189;28;20692;-70
2024/01/26 09:59:57;;;;;;;3.57;1.30;;;;;;;11.11;93.18;148913.22;4977866;28;20234;-70
2024/01/26 10:02:24;;;;;;;2.07;1.00;;;;;;;11.29;91.93;148956.78;4971215;28;20665;-70
2024/01/26 10:04:51;;;;;;;1.83;0.97;;;;;;;11.14;93.82;148920.69;4966441;28;20240;-70
2024/01/26 10:07:19;;;;;;;2.40;1.20;;;;;;;11.30;90.85;148959.28;4975319;28;20217;-71
2024/01/26 10:09:46;;;;;;;1.80;1.10;;;;;;;11.28;92.37;148955.56;4977709;28;20238;-70
2024/01/26 10:12:12;;;;;;;2.10;0.90;;;;;;;11.22;91.91;148940.63;4976713;28;20294;-70
2024/01/26 10:14:39;;;;;;;2.43;1.10;;;;;;;11.07;94.98;148904.50;4975722;28;20239;-70
2024/01/26 10:17:06;;;;;;;2.00;1.10;;;;;;;11.22;91.62;148940.63;4976691;28;20235;-70
2024/01/26 10:19:34;;;;;;;1.77;1.13;;;;;;;11.09;93.84;148909.50;4973892;28;20230;-70
2024/01/26 10:22:01;;;;;;;2.80;1.07;;;;;;;11.14;93.09;148921.91;4979678;28;20289;-70
2024/01/26 10:24:29;;;;;;;1.87;0.93;;;;;;;11.22;93.00;148941.84;4975338;28;20725;-70
2024/01/26 10:26:56;;;;;;;1.17;0.90;;;;;;;11.16;92.66;148926.88;4976422;28;20627;-70
2024/01/26 10:29:23;;;;;;;9.90;4.37;;;;;;;11.15;93.00;148924.41;4972700;28;20226;-70
2024/01/26 10:31:51;;;;;;;1.50;0.90;;;;;;;11.15;91.45;148924.41;4976323;28;20245;-70
2024/01/26 10:34:18;;;;;;;4.60;3.30;;;;;;;11.12;93.24;148916.97;4982045;28;20229;-70
2024/01/26 10:36:46;;;;;;;2.67;1.50;;;;;;;11.16;92.90;148925.66;4977049;28;20922;-70
2024/01/26 10:39:21;;;;;;;1.47;1.00;;;;;;;11.05;93.92;148900.75;4973201;28;20230;-70
2024/01/26 10:41:52;;;;;;;2.63;1.07;;;;;;;10.96;95.28;148878.31;4978428;28;20286;-70
2024/01/26 10:44:19;;;;;;;6.33;3.90;;;;;;;10.95;95.66;148874.59;4972735;28;20303;-70
2024/01/26 10:46:46;;;;;;;4.27;2.13;;;;;;;10.95;96.18;148874.59;4976045;28;20249;-70
2024/01/26 10:49:14;;;;;;;5.60;3.70;;;;;;;10.89;95.88;148860.88;4970868;28;20445;-70
2024/01/26 10:51:41;;;;;;;2.17;1.20;;;;;;;10.94;95.83;148873.34;4978251;28;20301;-71
2024/01/26 10:54:10;;;;;;;35.47;31.77;;;;;;;10.96;96.67;148877.09;4973579;28;20220;-70
2024/01/26 10:56:37;;;;;;;4.40;3.20;;;;;;;10.89;98.28;148862.16;4975724;28;20234;-69
2024/01/26 10:59:07;;;;;;;4.23;1.60;;;;;;;10.82;99.42;148844.69;4976963;28;20567;-69
2024/01/26 11:01:35;;;;;;;2.50;2.17;;;;;;;10.63;100.00;148798.59;4962106;28;20719;-69
2024/01/26 11:04:02;;;;;;;2.10;1.83;;;;;;;10.52;100.00;148772.47;4975976;28;20223;-69
2024/01/26 11:06:29;;;;;;;68.60;34.30;;;;;;;10.45;100.00;148756.28;4986993;28;20225;-69
2024/01/26 11:08:58;;;;;;;10.90;6.00;;;;;;;10.33;100.00;148726.34;4965359;28;20236;-69
2024/01/26 11:11:25;;;;;;;5.07;2.27;;;;;;;10.27;100.00;148712.63;4971687;28;20690;-69
2024/01/26 11:13:53;;;;;;;2.17;1.60;;;;;;;10.13;100.00;148677.75;4974107;28;20219;-69
2024/01/26 11:16:23;;;;;;;3.93;2.40;;;;;;;10.16;100.00;148685.22;4974571;28;20279;-69
2024/01/26 11:18:57;;;;;;;4.43;1.87;;;;;;;10.19;100.00;148693.97;4976851;28;20227;-69
2024/01/26 11:21:25;;;;;;;2.60;1.27;;;;;;;10.21;100.00;148696.47;4972442;28;20758;-69
2024/01/26 11:23:51;;;;;;;1.90;1.47;;;;;;;10.17;100.00;148687.72;4972921;28;20230;-69
2024/01/26 11:26:18;;;;;;;2.57;1.60;;;;;;;10.24;100.00;148705.16;4973582;28;20237;-69